Time;durP1;ratioP1;P1;durP2;ratioP2;P2;SDS_P1;SDS_P2;PMS_P1;PMS_P2;Temp;Humidity;BMP_temperature;BMP_pressure;BME280_temperature;BME280_humidity;BME280_pressure;Samples;Min_cycle;Max_cycle;Signal;HPM_P1;HPM_P2
2022/05/25 00:03:02;;;;;;;10.57;5.50;;;;;15.50;95987.00;;;;8427547;28;20254;-71
2022/05/25 00:07:07;;;;;;;6.35;4.95;;;;;15.50;95980.00;;;;8412647;28;20227;-71
2022/05/25 00:11:11;;;;;;;9.10;5.22;;;;;15.50;95978.00;;;;8430187;28;20314;-70
2022/05/25 00:15:15;;;;;;;10.23;6.18;;;;;15.40;95965.00;;;;8418073;28;20306;-71
2022/05/25 00:23:40;;;;;;;7.75;4.65;;;;;15.20;95946.00;;;;8413516;28;20262;-70
2022/05/25 00:27:44;;;;;;;8.27;5.30;;;;;15.00;95944.00;;;;8432472;28;20301;-70
2022/05/25 00:31:47;;;;;;;9.75;5.70;;;;;14.70;95938.00;;;;8427477;28;20230;-70
2022/05/25 00:35:51;;;;;;;8.48;4.82;;;;;14.60;95932.00;;;;8423917;28;20235;-70
2022/05/25 00:39:55;;;;;;;11.32;5.82;;;;;14.50;95938.00;;;;8408687;28;20259;-70
2022/05/25 00:43:59;;;;;;;12.63;5.72;;;;;14.40;95941.00;;;;8407031;28;20258;-70
2022/05/25 00:48:04;;;;;;;10.85;5.15;;;;;14.30;95953.00;;;;8415435;28;20278;-70
2022/05/25 00:52:09;;;;;;;11.15;5.38;;;;;14.30;95955.00;;;;8407019;28;20607;-71
2022/05/25 00:56:17;;;;;;;10.30;5.45;;;;;14.20;95958.00;;;;8412444;28;20310;-70
2022/05/25 01:00:22;;;;;;;14.93;5.70;;;;;14.20;95952.00;;;;8405271;28;20248;-69
2022/05/25 01:04:27;;;;;;;21.30;5.97;;;;;14.30;95949.00;;;;8424292;28;20275;-70
2022/05/25 01:08:39;;;;;;;13.10;5.78;;;;;14.30;95948.00;;;;8422674;28;20223;-71
2022/05/25 01:12:58;;;;;;;10.68;5.22;;;;;14.30;95953.00;;;;8421287;28;20226;-71
2022/05/25 01:17:14;;;;;;;8.90;5.90;;;;;14.40;95956.00;;;;8419700;28;20265;-70
2022/05/25 01:21:24;;;;;;;12.02;6.18;;;;;14.40;95956.00;;;;8412197;28;20841;-71
2022/05/25 01:25:50;;;;;;;13.02;5.72;;;;;14.40;95963.00;;;;8423131;28;20310;-69
2022/05/25 01:30:03;;;;;;;16.15;6.80;;;;;14.50;95970.00;;;;8416275;28;20242;-72
2022/05/25 01:34:11;;;;;;;14.30;7.32;;;;;14.60;95970.00;;;;8399835;28;20224;-70
2022/05/25 01:38:19;;;;;;;35.92;8.10;;;;;14.60;95959.00;;;;8407818;28;20711;-70
2022/05/25 01:42:28;;;;;;;13.13;7.10;;;;;14.60;95963.00;;;;8413954;28;20322;-70
2022/05/25 01:46:36;;;;;;;16.20;7.95;;;;;14.60;95965.00;;;;8406514;28;20299;-71
2022/05/25 01:50:44;;;;;;;18.42;7.75;;;;;14.60;95976.00;;;;8403103;28;20219;-70
2022/05/25 01:54:51;;;;;;;17.00;7.75;;;;;14.60;95971.00;;;;8419930;28;20594;-71
2022/05/25 01:59:03;;;;;;;14.75;7.70;;;;;14.70;95967.00;;;;8413967;28;20302;-70
2022/05/25 02:07:43;;;;;;;18.00;6.72;;;;;14.80;95977.00;;;;8403091;28;20753;-71
2022/05/25 02:11:49;;;;;;;14.40;5.97;;;;;14.80;95972.00;;;;8415493;28;20306;-71
2022/05/25 02:16:05;;;;;;;14.90;7.40;;;;;14.80;95967.00;;;;8416609;28;20316;-70
2022/05/25 02:20:20;;;;;;;14.43;7.03;;;;;14.90;95962.00;;;;8413043;28;20258;-69
2022/05/25 02:24:29;;;;;;;15.52;7.22;;;;;14.90;95963.00;;;;8414659;28;20606;-71
2022/05/25 02:28:37;;;;;;;11.93;7.15;;;;;14.90;95960.00;;;;8413488;28;20247;-71
2022/05/25 02:32:45;;;;;;;23.67;8.10;;;;;14.90;95948.00;;;;8417635;28;20306;-70
2022/05/25 02:36:51;;;;;;;20.15;8.30;;;;;14.90;95963.00;;;;8419189;28;20580;-70
2022/05/25 02:41:04;;;;;;;14.93;7.13;;;;;14.90;95966.00;;;;8415338;28;20264;-70
2022/05/25 02:45:08;;;;;;;12.45;7.07;;;;;14.90;95974.00;;;;8412188;28;20254;-69
2022/05/25 02:49:12;;;;;;;18.33;7.82;;;;;14.90;95989.00;;;;8404965;28;20660;-70
2022/05/25 02:53:17;;;;;;;15.20;6.88;;;;;14.80;95998.00;;;;8412893;28;20230;-71
2022/05/25 02:57:20;;;;;;;21.48;8.32;;;;;14.80;96000.00;;;;8410308;28;20230;-69
2022/05/25 03:05:27;;;;;;;16.67;8.20;;;;;14.80;95991.00;;;;8358004;28;21154;-70
2022/05/25 03:09:31;;;;;;;24.20;9.63;;;;;14.80;95997.00;;;;8368423;28;20615;-70
2022/05/25 03:13:35;;;;;;;27.55;10.07;;;;;14.80;96002.00;;;;8365774;28;20228;-70
2022/05/25 03:17:40;;;;;;;23.67;10.00;;;;;14.80;95999.00;;;;8361586;28;20236;-71
2022/05/25 03:21:43;;;;;;;18.80;9.38;;;;;14.80;96001.00;;;;8360864;28;20232;-71
2022/05/25 03:25:48;;;;;;;15.27;8.00;;;;;14.90;95996.00;;;;8362227;28;20897;-69
2022/05/25 03:29:52;;;;;;;14.52;8.38;;;;;14.90;96007.00;;;;8369857;28;20223;-72
2022/05/25 03:33:55;;;;;;;13.68;7.72;;;;;14.90;96024.00;;;;8371707;28;20228;-70
2022/05/25 03:38:01;;;;;;;12.18;6.30;;;;;14.90;96023.00;;;;8363648;28;20322;-70
2022/05/25 03:42:09;;;;;;;9.23;5.65;;;;;14.90;96027.00;;;;8363197;28;20726;-69
2022/05/25 03:46:12;;;;;;;10.70;6.38;;;;;14.80;96023.00;;;;8363669;28;20242;-69
2022/05/25 03:50:18;;;;;;;9.82;5.30;;;;;14.80;96036.00;;;;8368121;28;20762;-70
2022/05/25 03:54:21;;;;;;;7.88;5.10;;;;;14.70;96048.00;;;;8368688;28;20327;-71
2022/05/25 03:58:26;;;;;;;7.18;4.63;;;;;14.70;96059.00;;;;8385938;28;20223;-69
2022/05/25 04:02:29;;;;;;;10.57;5.38;;;;;14.70;96058.00;;;;8388765;28;20236;-70
2022/05/25 04:06:33;;;;;;;11.80;5.45;;;;;14.80;96070.00;;;;8445297;28;20226;-68
2022/05/25 04:10:36;;;;;;;10.85;5.05;;;;;14.70;96078.00;;;;8437951;28;20250;-69
2022/05/25 04:14:41;;;;;;;8.93;4.60;;;;;14.70;96083.00;;;;8444170;28;20333;-67
2022/05/25 04:18:44;;;;;;;6.78;4.20;;;;;14.50;96079.00;;;;8419733;27;20223;-68
2022/05/25 04:22:48;;;;;;;6.55;4.45;;;;;14.40;96087.00;;;;8437198;28;20274;-69
2022/05/25 04:26:51;;;;;;;5.93;4.60;;;;;14.30;96098.00;;;;8436926;28;20258;-68
2022/05/25 04:30:56;;;;;;;6.55;4.22;;;;;14.20;96099.00;;;;8439464;28;20221;-67
2022/05/25 04:35:00;;;;;;;7.70;4.47;;;;;14.10;96103.00;;;;8446972;28;20509;-66
2022/05/25 04:39:03;;;;;;;6.45;3.88;;;;;14.00;96110.00;;;;8438180;28;20582;-66
2022/05/25 04:43:08;;;;;;;7.18;4.18;;;;;14.00;96116.00;;;;8439180;28;20715;-66
2022/05/25 04:47:13;;;;;;;8.80;4.20;;;;;14.00;96110.00;;;;8443078;28;20227;-66
2022/05/25 04:51:17;;;;;;;6.78;4.75;;;;;14.00;96119.00;;;;8435739;28;20993;-67
2022/05/25 04:59:41;;;;;;;12.23;5.00;;;;;14.00;96120.00;;;;8432525;28;20689;-67
2022/05/25 05:03:45;;;;;;;6.57;4.28;;;;;14.10;96119.00;;;;8427226;28;20245;-67
2022/05/25 05:07:48;;;;;;;8.43;4.82;;;;;14.10;96126.00;;;;8438546;28;20256;-67
2022/05/25 05:11:52;;;;;;;7.60;4.47;;;;;14.10;96126.00;;;;8426687;28;20234;-66
2022/05/25 05:15:55;;;;;;;6.85;5.13;;;;;14.20;96145.00;;;;8436076;28;20575;-67
2022/05/25 05:20:00;;;;;;;6.30;4.80;;;;;14.10;96131.00;;;;8436702;28;20230;-67
2022/05/25 05:24:03;;;;;;;7.93;5.00;;;;;14.20;96141.00;;;;8435914;28;20586;-65
2022/05/25 05:28:10;;;;;;;8.88;4.90;;;;;14.20;96154.00;;;;8436531;28;20236;-66
2022/05/25 05:32:13;;;;;;;8.07;4.85;;;;;14.20;96156.00;;;;8438854;28;20233;-66
2022/05/25 05:36:22;;;;;;;9.02;5.13;;;;;14.20;96161.00;;;;8422680;28;20261;-66
2022/05/25 05:40:26;;;;;;;14.82;5.40;;;;;14.40;96167.00;;;;8433324;28;20245;-65
2022/05/25 05:44:34;;;;;;;11.80;5.60;;;;;14.40;96171.00;;;;8443291;28;20349;-67
2022/05/25 05:48:39;;;;;;;10.10;5.35;;;;;14.50;96172.00;;;;8437339;27;20306;-67
2022/05/25 05:52:44;;;;;;;6.95;4.90;;;;;14.50;96187.00;;;;8437401;28;20239;-68
2022/05/25 05:56:47;;;;;;;10.05;5.40;;;;;14.50;96196.00;;;;8418487;28;20226;-67
2022/05/25 06:00:50;;;;;;;7.50;5.70;;;;;14.50;96196.00;;;;8425376;28;20229;-66
2022/05/25 06:04:54;;;;;;;10.15;5.88;;;;;14.50;96206.00;;;;8442564;28;20254;-67
2022/05/25 06:08:58;;;;;;;7.28;4.82;;;;;14.60;96214.00;;;;8438080;28;20242;-68
2022/05/25 06:13:02;;;;;;;12.90;5.22;;;;;14.60;96207.00;;;;8430689;28;20325;-68
2022/05/25 06:21:26;;;;;;;7.93;5.00;;;;;14.70;96236.00;;;;8429041;28;20250;-68
2022/05/25 06:25:31;;;;;;;9.52;5.10;;;;;14.70;96245.00;;;;8431322;28;20233;-67
2022/05/25 06:29:34;;;;;;;5.30;4.50;;;;;14.70;96250.00;;;;8432488;28;20310;-67
2022/05/25 06:33:38;;;;;;;7.88;4.75;;;;;14.70;96252.00;;;;8429486;28;20684;-66
2022/05/25 06:37:42;;;;;;;8.95;4.80;;;;;14.70;96268.00;;;;8432332;28;20835;-67
2022/05/25 06:41:46;;;;;;;5.95;4.40;;;;;14.70;96278.00;;;;8428150;28;20223;-67
2022/05/25 06:45:50;;;;;;;8.55;4.30;;;;;14.70;96285.00;;;;8433508;28;20310;-67
2022/05/25 06:49:54;;;;;;;11.15;5.05;;;;;14.70;96288.00;;;;8424518;28;20313;-67
2022/05/25 06:53:58;;;;;;;9.65;4.30;;;;;14.80;96302.00;;;;8433962;28;20580;-68
2022/05/25 06:58:02;;;;;;;6.15;4.38;;;;;14.90;96302.00;;;;8433634;28;20223;-65
2022/05/25 07:02:06;;;;;;;8.90;5.13;;;;;14.90;96299.00;;;;8426114;28;20230;-66
2022/05/25 07:06:11;;;;;;;10.80;5.57;;;;;14.90;96311.00;;;;8427489;28;20230;-67
2022/05/25 07:10:14;;;;;;;10.63;5.53;;;;;14.80;96309.00;;;;8445410;28;20233;-67
2022/05/25 07:14:19;;;;;;;9.85;5.40;;;;;14.90;96310.00;;;;8429667;28;20579;-66
2022/05/25 07:18:22;;;;;;;10.68;5.20;;;;;14.90;96315.00;;;;8440780;28;20636;-66
2022/05/25 07:22:25;;;;;;;9.43;5.43;;;;;15.00;96313.00;;;;8425919;28;20310;-67
2022/05/25 07:26:32;;;;;;;11.10;5.68;;;;;14.90;96313.00;;;;8422358;28;20231;-67
2022/05/25 07:30:37;;;;;;;7.95;5.13;;;;;15.00;96312.00;;;;8430787;28;20222;-67
2022/05/25 07:34:44;;;;;;;6.55;5.13;;;;;15.20;96311.00;;;;8435336;28;20238;-67
2022/05/25 07:38:51;;;;;;;9.07;4.88;;;;;15.30;96304.00;;;;8445606;28;20614;-69
2022/05/25 07:42:59;;;;;;;11.43;4.82;;;;;15.40;96308.00;;;;8445493;28;20254;-69
2022/05/25 07:47:05;;;;;;;5.57;4.57;;;;;15.50;96299.00;;;;8451011;28;20673;-70
2022/05/25 07:51:08;;;;;;;8.00;4.68;;;;;15.90;96298.00;;;;8421892;28;20231;-71
2022/05/25 07:55:12;;;;;;;7.75;4.80;;;;;16.00;96309.00;;;;8430900;28;20231;-70
2022/05/25 07:59:16;;;;;;;4.47;3.95;;;;;16.10;96317.00;;;;8425503;28;20238;-70
2022/05/25 08:07:42;;;;;;;10.50;4.40;;;;;16.60;96323.00;;;;8439619;28;20264;-70
2022/05/25 08:11:45;;;;;;;7.80;4.38;;;;;16.90;96320.00;;;;8452661;28;20229;-69
2022/05/25 08:15:48;;;;;;;5.25;4.30;;;;;17.40;96320.00;;;;8445176;28;20574;-70
2022/05/25 08:19:53;;;;;;;4.07;3.40;;;;;18.30;96322.00;;;;8437301;28;20314;-69
2022/05/25 08:23:56;;;;;;;6.47;3.42;;;;;18.70;96330.00;;;;8431662;28;20230;-70
2022/05/25 08:28:00;;;;;;;5.88;3.38;;;;;19.00;96339.00;;;;8436627;28;20333;-70
2022/05/25 08:32:03;;;;;;;5.10;3.38;;;;;19.30;96352.00;;;;8446949;28;20317;-70
2022/05/25 08:36:08;;;;;;;6.57;3.80;;;;;19.20;96358.00;;;;8446980;28;20262;-69
2022/05/25 08:40:17;;;;;;;4.78;3.85;;;;;18.80;96362.00;;;;8431547;28;20249;-69
2022/05/25 08:44:23;;;;;;;5.70;3.50;;;;;18.90;96384.00;;;;8432788;28;20744;-71
2022/05/25 08:48:28;;;;;;;2.92;2.72;;;;;19.40;96388.00;;;;8436737;28;20229;-70
2022/05/25 08:52:35;;;;;;;4.35;2.97;;;;;19.60;96392.00;;;;8427930;28;20310;-71
2022/05/25 08:56:44;;;;;;;4.93;3.13;;;;;19.60;96380.00;;;;8439122;28;20837;-70
2022/05/25 09:00:49;;;;;;;2.75;2.50;;;;;20.00;96378.00;;;;8442767;28;20309;-70
2022/05/25 09:04:58;;;;;;;2.25;2.15;;;;;19.90;96378.00;;;;8442265;28;20318;-72
2022/05/25 09:09:07;;;;;;;4.40;2.30;;;;;20.10;96372.00;;;;8433979;28;20243;-71
2022/05/25 09:13:15;;;;;;;2.80;2.55;;;;;20.10;96377.00;;;;8438605;28;20211;-71
2022/05/25 09:17:23;;;;;;;4.68;2.22;;;;;20.80;96373.00;;;;8442150;28;20218;-70
2022/05/25 09:21:30;;;;;;;3.88;2.90;;;;;21.30;96367.00;;;;8439463;28;20342;-71
2022/05/25 09:25:35;;;;;;;3.75;2.30;;;;;21.50;96382.00;;;;8445247;28;20230;-71
2022/05/25 09:29:40;;;;;;;2.72;1.73;;;;;21.70;96387.00;;;;8429955;28;20231;-71
2022/05/25 09:33:49;;;;;;;2.00;1.70;;;;;22.10;96382.00;;;;8427810;28;20321;-71
2022/05/25 09:37:57;;;;;;;1.60;1.60;;;;;21.80;96380.00;;;;8436908;28;20218;-71
2022/05/25 09:42:06;;;;;;;2.90;1.80;;;;;21.40;96380.00;;;;8436073;28;20237;-71
2022/05/25 09:46:12;;;;;;;1.60;1.60;;;;;21.40;96379.00;;;;8436429;28;20682;-70
2022/05/25 09:50:26;;;;;;;4.25;2.03;;;;;21.80;96383.00;;;;8434586;28;20273;-71
2022/05/25 09:54:33;;;;;;;1.60;1.50;;;;;22.90;96380.00;;;;8447372;28;20231;-72
2022/05/25 09:58:44;;;;;;;3.03;2.03;;;;;23.60;96386.00;;;;8434491;28;20314;-72
2022/05/25 10:02:51;;;;;;;5.50;3.15;;;;;23.50;96378.00;;;;8429187;28;20344;-72
2022/05/25 10:06:56;;;;;;;2.65;2.40;;;;;22.90;96381.00;;;;8438486;28;20277;-72
2022/05/25 10:11:27;;;;;;;4.43;2.55;;;;;22.80;96381.00;;;;8433788;28;20222;-72
2022/05/25 10:15:35;;;;;;;1.85;1.70;;;;;23.20;96397.00;;;;8432055;28;20648;-72
2022/05/25 10:19:47;;;;;;;1.98;1.50;;;;;23.80;96395.00;;;;8430898;28;20243;-70
2022/05/25 10:23:50;;;;;;;2.53;1.77;;;;;24.20;96403.00;;;;8440246;27;20230;-70
2022/05/25 10:27:55;;;;;;;1.98;1.45;;;;;25.50;96394.00;;;;8441762;28;20299;-71
2022/05/25 10:40:46;;;;;;;1.58;1.25;;;;;24.70;96394.00;;;;8442245;28;20236;-72
2022/05/25 10:45:06;;;;;;;3.20;1.17;;;;;24.30;96399.00;;;;8439012;28;20222;-72
2022/05/25 10:49:20;;;;;;;1.00;1.00;;;;;23.70;96400.00;;;;8434714;28;20230;-72
2022/05/25 10:53:37;;;;;;;1.55;1.45;;;;;23.90;96394.00;;;;8437293;28;20325;-72
2022/05/25 10:57:59;;;;;;;1.95;1.30;;;;;23.70;96397.00;;;;8426923;28;20349;-73
2022/05/25 11:02:20;;;;;;;1.58;1.48;;;;;23.50;96398.00;;;;8446709;28;20712;-73
2022/05/25 11:06:47;;;;;;;1.60;1.50;;;;;23.30;96402.00;;;;8432616;28;20214;-73
2022/05/25 11:10:57;;;;;;;1.30;1.30;;;;;23.00;96405.00;;;;8442208;28;20210;-73
2022/05/25 11:15:13;;;;;;;3.60;1.30;;;;;22.70;96400.00;;;;8435333;28;20227;-72
2022/05/25 11:19:36;;;;;;;5.10;1.30;;;;;22.30;96409.00;;;;8439721;27;20253;-73
2022/05/25 11:23:57;;;;;;;2.33;1.30;;;;;22.00;96413.00;;;;8444845;28;20226;-72
2022/05/25 11:28:18;;;;;;;1.30;1.20;;;;;21.70;96411.00;;;;8438971;28;20214;-72
2022/05/25 11:32:27;;;;;;;1.80;1.60;;;;;21.80;96412.00;;;;8445481;28;20231;-73
2022/05/25 11:36:42;;;;;;;2.03;1.48;;;;;22.30;96419.00;;;;8439383;28;20533;-73
2022/05/25 11:40:56;;;;;;;1.17;1.17;;;;;23.10;96420.00;;;;8428733;28;20221;-73
2022/05/25 11:45:19;;;;;;;4.55;1.40;;;;;23.20;96424.00;;;;8433625;28;20310;-73
2022/05/25 11:49:55;;;;;;;1.30;1.20;;;;;23.30;96419.00;;;;8422706;28;20219;-70
2022/05/25 11:54:14;;;;;;;3.67;1.90;;;;;23.40;96428.00;;;;8404696;28;20246;-70
2022/05/25 11:58:29;;;;;;;1.10;1.10;;;;;23.50;96427.00;;;;8432528;28;20694;-70
2022/05/25 12:02:54;;;;;;;2.78;1.20;;;;;23.70;96434.00;;;;8434697;28;20848;-70
2022/05/25 12:07:11;;;;;;;1.52;1.10;;;;;24.10;96427.00;;;;8440402;28;20273;-70
2022/05/25 12:11:25;;;;;;;2.60;1.20;;;;;25.10;96422.00;;;;8442629;28;20607;-71
2022/05/25 12:15:35;;;;;;;1.60;1.50;;;;;25.20;96422.00;;;;8439251;28;20314;-71
2022/05/25 12:19:39;;;;;;;3.60;1.20;;;;;24.90;96427.00;;;;8439709;28;20231;-70
2022/05/25 12:23:46;;;;;;;1.13;1.13;;;;;25.60;96422.00;;;;8436710;28;20242;-71
2022/05/25 12:27:52;;;;;;;1.15;1.15;;;;;26.30;96416.00;;;;8443476;28;20294;-71
2022/05/25 12:31:58;;;;;;;1.20;1.13;;;;;25.90;96418.00;;;;8443858;28;20233;-70
2022/05/25 12:36:07;;;;;;;4.93;2.05;;;;;25.40;96410.00;;;;8438140;28;20321;-70
2022/05/25 12:40:12;;;;;;;1.15;1.10;;;;;25.30;96424.00;;;;8429851;28;20309;-72
2022/05/25 12:49:08;;;;;;;1.40;1.30;;;;;24.70;96410.00;;;;8441903;28;20324;-70
2022/05/25 12:53:22;;;;;;;3.00;1.52;;;;;24.60;96403.00;;;;8435314;28;20218;-71
2022/05/25 12:57:38;;;;;;;1.27;1.27;;;;;24.70;96402.00;;;;8440042;28;20574;-71
2022/05/25 13:01:43;;;;;;;1.50;1.20;;;;;24.70;96413.00;;;;8438740;28;20233;-71
2022/05/25 13:05:59;;;;;;;1.73;1.25;;;;;24.50;96398.00;;;;8429100;28;20699;-72
2022/05/25 13:10:06;;;;;;;1.15;1.05;;;;;24.60;96410.00;;;;8442781;28;20325;-71
2022/05/25 13:14:43;;;;;;;2.55;1.20;;;;;25.10;96407.00;;;;8432190;28;20250;-70
2022/05/25 13:18:55;;;;;;;6.80;1.10;;;;;25.70;96402.00;;;;8446973;28;20696;-70
2022/05/25 13:23:02;;;;;;;1.95;1.30;;;;;26.30;96399.00;;;;8440833;28;20238;-70
2022/05/25 13:27:30;;;;;;;1.20;1.13;;;;;27.20;96403.00;;;;8450416;28;20249;-71
2022/05/25 13:31:42;;;;;;;2.92;1.20;;;;;27.60;96394.00;;;;8435477;28;20734;-72
2022/05/25 13:35:48;;;;;;;3.85;1.02;;;;;27.50;96386.00;;;;8447602;28;20658;-74
2022/05/25 13:39:52;;;;;;;2.28;1.23;;;;;27.60;96394.00;;;;8434085;28;20297;-71
2022/05/25 13:44:09;;;;;;;1.40;1.30;;;;;28.00;96394.00;;;;8435034;28;20313;-71
2022/05/25 13:48:14;;;;;;;1.23;1.08;;;;;28.10;96392.00;;;;8431069;28;20225;-74
2022/05/25 13:52:21;;;;;;;1.75;1.20;;;;;28.00;96389.00;;;;8427888;28;20978;-75
2022/05/25 13:56:31;;;;;;;3.65;1.30;;;;;27.20;96387.00;;;;8429919;28;20309;-74
2022/05/25 14:00:41;;;;;;;4.78;1.38;;;;;26.10;96398.00;;;;8432492;28;20318;-74
2022/05/25 14:04:46;;;;;;;2.53;1.20;;;;;25.30;96399.00;;;;8432673;28;20251;-74
2022/05/25 14:13:18;;;;;;;2.28;1.30;;;;;25.10;96395.00;;;;8430810;28;20238;-74
2022/05/25 14:17:24;;;;;;;1.80;1.40;;;;;25.00;96396.00;;;;8437134;28;20644;-74
2022/05/25 14:21:39;;;;;;;1.40;1.27;;;;;25.70;96394.00;;;;8429939;28;20242;-72
2022/05/25 14:25:43;;;;;;;1.30;1.30;;;;;26.70;96399.00;;;;8435431;28;20262;-75
2022/05/25 14:29:49;;;;;;;2.38;1.00;;;;;27.00;96392.00;;;;8435456;28;20697;-73
2022/05/25 14:34:04;;;;;;;3.13;1.10;;;;;26.20;96393.00;;;;8432470;28;20249;-74
2022/05/25 14:38:10;;;;;;;2.13;1.02;;;;;25.30;96386.00;;;;8437091;28;20250;-74
2022/05/25 14:42:33;;;;;;;1.55;1.33;;;;;25.40;96392.00;;;;8433682;28;20678;-74
2022/05/25 14:46:40;;;;;;;1.23;1.10;;;;;26.30;96393.00;;;;8432063;28;20328;-74
2022/05/25 14:50:47;;;;;;;2.15;1.10;;;;;26.80;96393.00;;;;8427210;28;20325;-74
2022/05/25 14:54:51;;;;;;;1.85;1.30;;;;;27.30;96399.00;;;;8428755;28;20301;-73
2022/05/25 14:58:56;;;;;;;1.38;1.27;;;;;27.60;96397.00;;;;8431768;28;20234;-74
2022/05/25 15:03:03;;;;;;;1.67;1.10;;;;;27.10;96405.00;;;;8426058;28;20557;-73
2022/05/25 15:07:07;;;;;;;1.17;1.17;;;;;26.60;96401.00;;;;8430827;28;20268;-73
2022/05/25 15:11:35;;;;;;;3.10;1.20;;;;;26.00;96397.00;;;;8428451;28;20219;-69
2022/05/25 15:20:12;;;;;;;1.67;1.40;;;;;25.20;96396.00;;;;8429968;28;20226;-72
2022/05/25 15:24:17;;;;;;;1.40;1.30;;;;;25.40;96396.00;;;;8419426;28;20245;-72
2022/05/25 15:28:33;;;;;;;1.40;1.30;;;;;26.30;96393.00;;;;8426699;28;20249;-72
2022/05/25 15:32:43;;;;;;;4.68;1.27;;;;;27.00;96394.00;;;;8430459;28;20757;-72
2022/05/25 15:36:49;;;;;;;1.25;1.15;;;;;27.30;96391.00;;;;8432586;28;20245;-72
2022/05/25 15:40:53;;;;;;;3.13;1.17;;;;;27.00;96397.00;;;;8427944;28;20222;-73
2022/05/25 15:44:56;;;;;;;3.85;1.42;;;;;27.30;96393.00;;;;8432326;28;20230;-72
2022/05/25 15:48:59;;;;;;;1.30;1.30;;;;;27.90;96399.00;;;;8437677;28;20303;-72
2022/05/25 15:53:04;;;;;;;2.55;1.13;;;;;27.50;96402.00;;;;8447627;28;20276;-68
2022/05/25 15:57:08;;;;;;;3.05;1.13;;;;;26.60;96406.00;;;;8444694;28;20226;-68
2022/05/25 16:01:13;;;;;;;1.30;1.23;;;;;26.30;96399.00;;;;8427774;28;20237;-66
2022/05/25 16:05:24;;;;;;;1.50;1.40;;;;;26.10;96398.00;;;;8429821;28;20886;-68
2022/05/25 16:09:28;;;;;;;3.10;1.40;;;;;26.20;96397.00;;;;8435494;28;20234;-69
2022/05/25 16:13:31;;;;;;;1.48;1.20;;;;;26.50;96402.00;;;;8437423;28;21070;-71
2022/05/25 16:17:35;;;;;;;3.22;1.63;;;;;26.50;96402.00;;;;8436650;28;20226;-71
2022/05/25 16:21:38;;;;;;;1.48;1.38;;;;;26.70;96402.00;;;;8438127;28;20668;-68
2022/05/25 16:25:43;;;;;;;2.50;1.40;;;;;26.90;96401.00;;;;8402365;28;20322;-71
2022/05/25 16:29:46;;;;;;;4.20;1.20;;;;;26.80;96406.00;;;;8429125;28;20809;-68
2022/05/25 16:33:50;;;;;;;2.22;1.33;;;;;26.80;96398.00;;;;8409467;28;20288;-72
2022/05/25 16:37:53;;;;;;;1.70;1.10;;;;;26.60;96409.00;;;;8415187;28;20314;-69
2022/05/25 16:41:58;;;;;;;1.83;1.20;;;;;26.60;96402.00;;;;8440073;28;20191;-68
2022/05/25 16:46:01;;;;;;;2.97;1.48;;;;;26.50;96404.00;;;;8408515;28;20317;-68
2022/05/25 16:50:05;;;;;;;1.40;1.30;;;;;26.30;96412.00;;;;8430110;28;20233;-71
2022/05/25 16:54:09;;;;;;;1.38;1.27;;;;;26.20;96415.00;;;;8450159;28;20246;-69
2022/05/25 16:58:14;;;;;;;2.13;1.30;;;;;26.20;96422.00;;;;8444701;28;20314;-69
2022/05/25 17:02:17;;;;;;;1.55;1.40;;;;;26.00;96427.00;;;;8435169;28;20226;-69
2022/05/25 17:06:21;;;;;;;1.65;1.45;;;;;25.70;96420.00;;;;8437091;28;20236;-71
2022/05/25 17:10:24;;;;;;;1.30;1.27;;;;;26.20;96432.00;;;;8434974;27;20240;-72
2022/05/25 17:14:29;;;;;;;1.33;1.27;;;;;26.90;96430.00;;;;8434403;28;21017;-72
2022/05/25 17:20:31;;;;;;;2.47;1.20;;;;;27.40;96439.00;;;;8437396;28;20229;-73
2022/05/25 17:22:56;;;;;;;2.25;1.52;;;;;26.60;96436.00;;;;8433982;28;20310;-72
2022/05/25 17:26:59;;;;;;;1.25;1.20;;;;;26.50;96449.00;;;;8435447;28;20259;-71
2022/05/25 17:31:05;;;;;;;3.45;1.30;;;;;25.90;96444.00;;;;8431861;28;20221;-72
2022/05/25 17:35:10;;;;;;;3.35;1.58;;;;;25.70;96454.00;;;;8434824;28;20306;-71
2022/05/25 17:43:37;;;;;;;3.25;1.20;;;;;27.00;96472.00;;;;8408266;28;20237;-72
2022/05/25 17:47:42;;;;;;;1.88;1.50;;;;;27.60;96474.00;;;;8433317;28;20221;-72
2022/05/25 17:51:47;;;;;;;1.75;1.40;;;;;27.40;96473.00;;;;8430451;28;20247;-74
2022/05/25 17:55:50;;;;;;;1.40;1.20;;;;;26.50;96490.00;;;;8436508;28;20240;-72
2022/05/25 17:59:54;;;;;;;1.48;1.38;;;;;25.60;96486.00;;;;8440107;28;20238;-72
2022/05/25 18:03:58;;;;;;;1.45;1.35;;;;;24.70;96491.00;;;;8450143;28;20239;-72
2022/05/25 18:08:04;;;;;;;1.80;1.08;;;;;23.90;96501.00;;;;8449308;28;20249;-71
2022/05/25 18:12:10;;;;;;;1.23;1.10;;;;;23.30;96495.00;;;;8443854;28;20696;-71
2022/05/25 18:16:13;;;;;;;2.47;1.50;;;;;22.70;96495.00;;;;8438352;28;20229;-71
2022/05/25 18:20:19;;;;;;;2.50;1.17;;;;;22.20;96500.00;;;;8438868;28;20317;-71
2022/05/25 18:24:23;;;;;;;1.52;1.35;;;;;21.70;96501.00;;;;8450785;28;20242;-70
2022/05/25 18:28:27;;;;;;;1.40;1.33;;;;;21.30;96501.00;;;;8434733;28;20219;-71
2022/05/25 18:32:31;;;;;;;2.05;1.48;;;;;20.80;96505.00;;;;8432266;28;20319;-69
2022/05/25 18:36:37;;;;;;;3.10;1.65;;;;;20.30;96500.00;;;;8429713;28;20615;-69
2022/05/25 18:40:42;;;;;;;5.93;1.63;;;;;19.90;96496.00;;;;8436196;28;20234;-72
2022/05/25 18:44:47;;;;;;;4.80;1.77;;;;;19.40;96507.00;;;;8427715;28;20239;-73
2022/05/25 18:48:51;;;;;;;2.78;1.30;;;;;18.80;96507.00;;;;8446018;28;20700;-71
2022/05/25 18:52:56;;;;;;;4.32;1.63;;;;;18.40;96518.00;;;;8437633;28;20232;-71
2022/05/25 18:56:59;;;;;;;3.70;1.58;;;;;18.00;96520.00;;;;8433454;28;20297;-69
2022/05/25 19:01:03;;;;;;;4.68;1.77;;;;;17.70;96524.00;;;;8433509;28;20240;-72
2022/05/25 19:05:07;;;;;;;1.42;1.33;;;;;17.30;96526.00;;;;8442115;28;20231;-70
2022/05/25 19:09:12;;;;;;;1.98;1.55;;;;;16.90;96531.00;;;;8441345;28;20232;-72
2022/05/25 19:13:16;;;;;;;2.65;1.60;;;;;16.60;96526.00;;;;8440287;28;20722;-72
2022/05/25 19:17:19;;;;;;;3.80;1.70;;;;;16.40;96535.00;;;;8430023;28;20326;-72
2022/05/25 19:21:23;;;;;;;1.73;1.63;;;;;16.20;96544.00;;;;8447722;28;21134;-72
2022/05/25 19:25:31;;;;;;;3.80;1.80;;;;;16.00;96547.00;;;;8432863;28;20236;-71
2022/05/25 19:29:35;;;;;;;2.60;1.92;;;;;15.80;96560.00;;;;8442171;28;20223;-72
2022/05/25 19:33:44;;;;;;;5.75;1.92;;;;;15.70;96571.00;;;;8445350;28;20314;-72
2022/05/25 19:37:51;;;;;;;2.80;1.80;;;;;15.60;96569.00;;;;8452265;28;20236;-72
2022/05/25 19:41:58;;;;;;;6.43;1.90;;;;;15.40;96573.00;;;;8447117;28;20227;-72
2022/05/25 19:46:02;;;;;;;2.17;1.90;;;;;15.30;96582.00;;;;8432790;28;20236;-72
2022/05/25 19:54:28;;;;;;;6.28;2.60;;;;;14.90;96578.00;;;;8437335;28;20255;-71
2022/05/25 19:58:33;;;;;;;5.10;2.20;;;;;14.70;96592.00;;;;8443506;28;20582;-71
2022/05/25 20:02:37;;;;;;;6.90;2.55;;;;;14.60;96590.00;;;;8432026;28;20296;-72
2022/05/25 20:06:40;;;;;;;2.25;2.08;;;;;14.40;96595.00;;;;8447951;28;20236;-72
2022/05/25 20:10:44;;;;;;;2.28;2.05;;;;;14.30;96592.00;;;;8440511;28;20624;-72
2022/05/25 20:14:51;;;;;;;3.03;2.13;;;;;14.20;96594.00;;;;8437433;28;20245;-72
2022/05/25 20:18:54;;;;;;;3.90;2.20;;;;;14.00;96601.00;;;;8438625;28;20224;-71
2022/05/25 20:22:57;;;;;;;4.10;2.30;;;;;13.90;96608.00;;;;8439613;28;20227;-71
2022/05/25 20:27:01;;;;;;;3.72;2.40;;;;;13.80;96600.00;;;;8435000;28;20323;-72
2022/05/25 20:31:05;;;;;;;2.42;2.22;;;;;13.70;96599.00;;;;8443662;28;20697;-72
2022/05/25 20:35:10;;;;;;;4.60;2.45;;;;;13.70;96598.00;;;;8438002;28;20229;-71
2022/05/25 20:39:14;;;;;;;2.63;2.42;;;;;13.60;96606.00;;;;8437438;28;20242;-72
2022/05/25 20:43:18;;;;;;;7.38;2.40;;;;;13.60;96607.00;;;;8438058;28;20256;-72
2022/05/25 20:47:24;;;;;;;2.58;2.38;;;;;13.60;96615.00;;;;8432751;28;20637;-72
2022/05/25 20:51:27;;;;;;;4.78;2.60;;;;;13.60;96611.00;;;;8445584;28;20302;-72
2022/05/25 20:55:30;;;;;;;5.05;2.65;;;;;13.50;96608.00;;;;8432123;28;20226;-72
2022/05/25 20:59:33;;;;;;;3.35;2.20;;;;;13.40;96614.00;;;;8442832;28;21063;-71
2022/05/25 21:03:40;;;;;;;7.80;3.25;;;;;13.20;96620.00;;;;8443036;28;20312;-71
2022/05/25 21:07:44;;;;;;;5.95;2.40;;;;;13.10;96618.00;;;;8422650;28;20681;-71
2022/05/25 21:11:47;;;;;;;2.10;1.92;;;;;12.90;96623.00;;;;8442840;28;20233;-71
2022/05/25 21:15:51;;;;;;;2.85;2.65;;;;;12.80;96623.00;;;;8430540;28;20229;-70
2022/05/25 21:19:57;;;;;;;6.05;2.75;;;;;12.60;96625.00;;;;8432084;28;20221;-72
2022/05/25 21:24:01;;;;;;;3.95;2.58;;;;;12.50;96627.00;;;;8431196;28;20242;-71
2022/05/25 21:28:06;;;;;;;5.93;2.75;;;;;12.40;96626.00;;;;8436855;28;20240;-73
2022/05/25 21:36:32;;;;;;;16.67;3.72;;;;;12.40;96640.00;;;;8433787;28;20255;-73